Time;durP1;ratioP1;P1;durP2;ratioP2;P2;SDS_P1;SDS_P2;PMS_P1;PMS_P2;Temp;Humidity;BMP_temperature;BMP_pressure;BME280_temperature;BME280_humidity;BME280_pressure;Samples;Min_cycle;Max_cycle;Signal;HPM_P1;HPM_P2
2023/10/29 00:00:14;;;;;;;4.10;2.10;;;10.60;99.90;;;;;;4197223;28;20500;-79
2023/10/29 00:02:16;;;;;;;5.20;2.55;;;10.70;99.90;;;;;;4180084;28;20084;-80
2023/10/29 00:04:16;;;;;;;9.13;3.47;;;10.70;99.90;;;;;;4197145;28;20405;-80
2023/10/29 00:06:18;;;;;;;3.20;2.20;;;10.70;99.90;;;;;;4197047;28;20099;-79
2023/10/29 00:08:20;;;;;;;7.13;2.53;;;10.70;99.90;;;;;;4215341;28;20047;-79
2023/10/29 00:10:21;;;;;;;5.72;2.17;;;10.70;99.90;;;;;;4197240;28;20048;-79
2023/10/29 00:12:23;;;;;;;6.88;2.83;;;10.70;99.90;;;;;;4180034;28;20056;-79
2023/10/29 00:14:24;;;;;;;5.35;2.50;;;10.80;99.90;;;;;;4196888;28;20128;-79
2023/10/29 00:16:25;;;;;;;4.20;2.45;;;10.70;99.90;;;;;;4197222;28;20155;-79
2023/10/29 00:18:27;;;;;;;6.20;2.30;;;10.70;99.90;;;;;;4214884;28;20137;-79
2023/10/29 00:20:28;;;;;;;6.15;2.80;;;10.90;99.90;;;;;;4180665;28;20079;-79
2023/10/29 00:22:28;;;;;;;5.40;3.17;;;10.80;99.90;;;;;;4214413;28;20040;-79
2023/10/29 00:24:29;;;;;;;5.35;2.45;;;10.80;99.90;;;;;;4214947;28;20044;-79
2023/10/29 00:26:29;;;;;;;4.90;2.70;;;10.80;99.90;;;;;;4180533;28;20049;-79
2023/10/29 00:28:30;;;;;;;6.80;2.85;;;10.80;99.90;;;;;;4196923;28;20056;-79
2023/10/29 00:30:31;;;;;;;4.47;2.60;;;10.80;99.90;;;;;;4214745;28;20051;-79
2023/10/29 00:32:31;;;;;;;9.13;2.90;;;10.80;99.90;;;;;;4196472;28;20048;-79
2023/10/29 00:34:32;;;;;;;7.00;2.55;;;10.80;99.90;;;;;;4196946;28;20079;-79
2023/10/29 00:36:33;;;;;;;4.72;2.67;;;11.00;99.90;;;;;;4214773;28;20040;-79
2023/10/29 00:38:33;;;;;;;4.28;2.47;;;10.90;99.90;;;;;;4196521;28;20084;-79
2023/10/29 00:40:38;;;;;;;5.13;2.60;;;10.80;99.90;;;;;;4214637;28;20039;-80
2023/10/29 00:42:38;;;;;;;6.65;2.35;;;10.90;99.90;;;;;;4214413;28;20086;-80
2023/10/29 00:44:39;;;;;;;8.38;2.60;;;10.90;99.90;;;;;;4179573;28;20538;-79
2023/10/29 00:46:41;;;;;;;5.75;2.45;;;11.00;99.90;;;;;;4214444;28;20040;-79
2023/10/29 00:48:43;;;;;;;4.53;2.20;;;10.80;99.90;;;;;;4214477;28;20070;-79
2023/10/29 00:50:43;;;;;;;5.53;2.50;;;11.00;99.90;;;;;;4214465;28;20062;-79
2023/10/29 00:52:44;;;;;;;6.75;2.20;;;10.80;99.90;;;;;;4196262;28;20048;-79
2023/10/29 00:54:45;;;;;;;6.18;2.47;;;10.80;99.90;;;;;;4179806;28;20044;-79
2023/10/29 00:56:45;;;;;;;2.97;2.33;;;10.80;99.90;;;;;;4214001;28;20604;-80
2023/10/29 00:58:47;;;;;;;6.25;2.80;;;10.90;99.90;;;;;;4196580;28;20140;-79
2023/10/29 01:00:47;;;;;;;4.53;2.45;;;10.90;99.90;;;;;;4214093;28;20553;-80
2023/10/29 01:02:48;;;;;;;3.10;1.90;;;10.90;99.90;;;;;;4179690;28;20045;-79
2023/10/29 01:04:49;;;;;;;5.93;2.38;;;10.90;99.90;;;;;;4196513;28;20072;-80
2023/10/29 01:06:50;;;;;;;3.35;2.20;;;10.70;99.90;;;;;;4179796;28;20060;-80
2023/10/29 01:08:51;;;;;;;4.03;2.20;;;10.80;99.90;;;;;;4195921;28;20060;-80
2023/10/29 01:10:51;;;;;;;3.47;2.28;;;10.90;99.90;;;;;;4214200;28;20179;-80
2023/10/29 01:12:52;;;;;;;3.35;2.35;;;10.90;99.90;;;;;;4196589;28;20036;-79
2023/10/29 01:14:53;;;;;;;3.13;2.13;;;10.90;99.90;;;;;;4214156;28;20043;-79
2023/10/29 01:16:54;;;;;;;4.55;2.60;;;11.00;99.90;;;;;;4196227;28;20059;-80
2023/10/29 01:19:01;;;;;;;3.53;2.33;;;11.00;99.90;;;;;;4213929;28;20468;-80
2023/10/29 01:21:02;;;;;;;3.17;2.28;;;10.90;99.90;;;;;;4196118;28;20080;-80
2023/10/29 01:23:02;;;;;;;5.00;2.28;;;10.90;99.90;;;;;;4196152;28;20043;-79
2023/10/29 01:25:07;;;;;;;4.43;2.08;;;11.10;99.90;;;;;;4196123;28;20541;-79
2023/10/29 01:27:09;;;;;;;4.20;2.55;;;11.00;99.90;;;;;;4213329;28;20055;-80
2023/10/29 01:29:10;;;;;;;6.55;2.40;;;10.90;99.90;;;;;;4214113;28;20115;-79
2023/10/29 01:31:10;;;;;;;6.75;2.22;;;11.00;99.90;;;;;;4196049;28;20056;-79
2023/10/29 01:33:11;;;;;;;3.67;2.55;;;11.00;99.90;;;;;;4196263;28;20405;-80
2023/10/29 01:35:12;;;;;;;4.03;2.38;;;11.00;99.90;;;;;;4179356;28;20142;-80
2023/10/29 01:37:12;;;;;;;3.30;2.25;;;11.40;99.90;;;;;;4213589;28;20036;-79
2023/10/29 01:39:13;;;;;;;4.55;2.78;;;11.00;99.90;;;;;;4196199;28;20048;-79
2023/10/29 01:41:14;;;;;;;4.07;2.10;;;11.10;99.90;;;;;;4214202;28;20047;-79
2023/10/29 01:43:16;;;;;;;4.90;2.22;;;11.10;99.90;;;;;;4195909;28;20045;-80
2023/10/29 01:45:17;;;;;;;9.38;2.20;;;11.10;99.90;;;;;;4195511;28;20059;-80
2023/10/29 01:47:17;;;;;;;4.78;2.28;;;11.10;99.90;;;;;;4196155;28;20044;-80
2023/10/29 01:49:18;;;;;;;2.50;2.15;;;11.20;99.90;;;;;;4196124;28;20048;-80
2023/10/29 01:51:19;;;;;;;4.20;2.75;;;11.20;99.90;;;;;;4196077;28;20055;-79
2023/10/29 01:53:19;;;;;;;4.03;2.00;;;11.20;99.90;;;;;;4213959;28;20032;-79
2023/10/29 01:55:20;;;;;;;4.68;2.42;;;11.20;99.90;;;;;;4195884;28;20048;-80
2023/10/29 01:57:21;;;;;;;5.50;2.42;;;11.20;99.90;;;;;;4196088;28;20044;-80
2023/10/29 01:59:22;;;;;;;3.30;2.30;;;11.30;99.90;;;;;;4195881;28;20124;-79
2023/10/29 02:01:22;;;;;;;3.83;2.53;;;11.30;99.90;;;;;;4213383;28;20112;-80
2023/10/29 02:03:24;;;;;;;3.22;2.13;;;11.30;99.90;;;;;;4213975;28;20040;-80
2023/10/29 02:05:25;;;;;;;4.45;2.45;;;11.30;99.90;;;;;;4196005;28;20044;-79
2023/10/29 02:07:25;;;;;;;4.05;2.20;;;11.40;99.90;;;;;;4196282;28;20054;-80
2023/10/29 02:09:27;;;;;;;3.90;2.25;;;11.40;99.90;;;;;;4195939;28;20048;-79
2023/10/29 02:11:28;;;;;;;5.13;2.35;;;11.40;99.90;;;;;;4214124;28;20055;-79
2023/10/29 02:13:29;;;;;;;5.50;2.70;;;11.40;99.90;;;;;;4179005;28;20045;-79
2023/10/29 02:15:29;;;;;;;3.13;2.10;;;11.40;99.90;;;;;;4195722;28;20048;-80
2023/10/29 02:17:30;;;;;;;6.22;2.53;;;11.50;99.90;;;;;;4179191;28;20057;-80
2023/10/29 02:19:31;;;;;;;3.95;2.28;;;11.50;99.90;;;;;;4196246;28;20067;-80
2023/10/29 02:21:34;;;;;;;5.25;2.30;;;11.50;99.90;;;;;;4213721;28;20431;-81
2023/10/29 02:23:35;;;;;;;3.53;2.30;;;11.60;99.90;;;;;;4213631;28;20106;-79
2023/10/29 02:25:36;;;;;;;4.55;2.10;;;11.70;99.90;;;;;;4195758;28;20040;-79
2023/10/29 02:27:37;;;;;;;6.18;2.50;;;11.60;99.90;;;;;;4213150;28;20400;-79
2023/10/29 02:29:37;;;;;;;6.03;2.58;;;11.60;99.90;;;;;;4195697;28;20045;-79
2023/10/29 02:31:38;;;;;;;4.10;2.00;;;11.70;99.90;;;;;;4179095;28;20052;-80
2023/10/29 02:33:40;;;;;;;7.00;2.47;;;11.70;99.90;;;;;;4195886;28;20076;-79
2023/10/29 02:35:40;;;;;;;4.18;2.22;;;11.80;99.90;;;;;;4213540;28;20044;-80
2023/10/29 02:37:41;;;;;;;4.35;2.15;;;11.80;99.90;;;;;;4196178;28;20155;-80
2023/10/29 02:39:43;;;;;;;4.75;2.20;;;11.90;99.90;;;;;;4181641;28;20049;-80
2023/10/29 02:41:44;;;;;;;4.93;1.95;;;11.90;99.90;;;;;;4216305;28;20047;-80
2023/10/29 02:43:45;;;;;;;3.47;1.98;;;12.00;99.90;;;;;;4198252;28;20436;-79
2023/10/29 02:45:46;;;;;;;3.25;1.60;;;12.00;99.90;;;;;;4198420;28;20067;-79
2023/10/29 02:47:47;;;;;;;5.68;2.60;;;12.00;99.90;;;;;;4216374;28;20036;-80
2023/10/29 02:49:47;;;;;;;5.65;2.10;;;12.00;99.90;;;;;;4216314;28;20118;-79
2023/10/29 02:51:48;;;;;;;6.20;1.75;;;12.10;99.90;;;;;;4216581;28;20048;-79
2023/10/29 02:53:48;;;;;;;4.18;1.60;;;12.10;99.90;;;;;;4198208;28;20182;-79
2023/10/29 02:55:49;;;;;;;3.45;1.35;;;12.20;99.90;;;;;;4198066;28;20056;-79
2023/10/29 02:57:51;;;;;;;6.97;2.50;;;12.10;99.90;;;;;;4198496;28;20534;-79
2023/10/29 02:59:51;;;;;;;2.70;1.70;;;12.20;99.90;;;;;;4198127;28;20044;-79
2023/10/29 03:01:52;;;;;;;3.55;1.40;;;12.20;99.90;;;;;;4197931;28;20057;-80
2023/10/29 03:03:53;;;;;;;6.07;2.03;;;12.20;99.90;;;;;;4198102;28;20044;-79
2023/10/29 03:05:53;;;;;;;6.03;1.40;;;12.10;99.90;;;;;;4198306;28;20092;-79
2023/10/29 03:07:54;;;;;;;2.70;1.42;;;12.10;99.90;;;;;;4216026;28;20036;-79
2023/10/29 03:09:55;;;;;;;3.78;1.70;;;12.10;99.90;;;;;;4215576;28;20043;-80
2023/10/29 03:11:55;;;;;;;2.35;1.40;;;12.20;99.90;;;;;;4198299;28;20048;-80
2023/10/29 03:13:57;;;;;;;2.72;1.20;;;12.10;99.90;;;;;;4181693;28;20051;-79
2023/10/29 03:15:58;;;;;;;4.57;1.30;;;12.10;99.90;;;;;;4198248;28;20560;-79
2023/10/29 03:17:59;;;;;;;4.10;1.33;;;12.10;99.90;;;;;;4197661;28;20048;-79
2023/10/29 03:20:00;;;;;;;5.13;1.83;;;12.10;99.90;;;;;;4181374;28;20048;-80
2023/10/29 03:22:01;;;;;;;1.83;1.30;;;12.10;99.90;;;;;;4181570;28;20082;-79
2023/10/29 03:24:02;;;;;;;2.38;1.27;;;12.10;99.90;;;;;;4215959;28;20091;-79
2023/10/29 03:26:03;;;;;;;4.88;1.20;;;12.10;99.90;;;;;;4197565;28;20432;-80
2023/10/29 03:28:04;;;;;;;2.33;1.50;;;12.10;99.90;;;;;;4197810;28;20052;-79
2023/10/29 03:30:06;;;;;;;2.00;1.08;;;12.00;99.90;;;;;;4181221;28;20128;-79
2023/10/29 03:32:06;;;;;;;4.65;1.27;;;12.00;99.90;;;;;;4197819;28;20440;-79
2023/10/29 03:34:08;;;;;;;1.70;1.05;;;12.00;99.90;;;;;;4181115;28;20041;-80
2023/10/29 03:36:09;;;;;;;2.45;1.30;;;12.00;99.90;;;;;;4197715;28;20161;-79
2023/10/29 03:38:09;;;;;;;3.47;1.20;;;12.00;99.90;;;;;;4197133;28;20060;-79
2023/10/29 03:40:10;;;;;;;2.88;1.40;;;12.00;99.90;;;;;;4215676;28;20443;-79
2023/10/29 03:42:11;;;;;;;3.92;1.58;;;12.00;99.90;;;;;;4197399;28;20052;-80
2023/10/29 03:44:12;;;;;;;1.73;1.00;;;12.00;99.90;;;;;;4215430;28;20471;-80
2023/10/29 03:46:13;;;;;;;5.88;2.70;;;12.00;99.90;;;;;;4197054;28;20048;-80
2023/10/29 03:48:15;;;;;;;3.25;1.30;;;12.00;99.90;;;;;;4197561;28;20127;-79
2023/10/29 03:50:17;;;;;;;3.65;1.25;;;12.00;99.90;;;;;;4197548;28;20044;-79
2023/10/29 03:52:21;;;;;;;3.38;1.13;;;12.00;99.90;;;;;;4180769;28;20045;-79
2023/10/29 03:54:22;;;;;;;2.80;1.35;;;12.00;99.90;;;;;;4197180;28;20070;-79
2023/10/29 03:56:23;;;;;;;3.83;1.00;;;12.00;99.90;;;;;;4215014;28;20477;-79
2023/10/29 03:58:24;;;;;;;2.20;1.13;;;12.00;99.90;;;;;;4215465;28;20066;-79
2023/10/29 04:00:24;;;;;;;3.42;0.98;;;12.00;99.90;;;;;;4197306;28;20091;-80
2023/10/29 04:02:25;;;;;;;2.08;1.20;;;12.00;99.90;;;;;;4197181;28;20127;-80
2023/10/29 04:04:26;;;;;;;1.38;1.00;;;12.00;99.90;;;;;;4196965;28;20045;-80
2023/10/29 04:06:26;;;;;;;5.28;0.95;;;12.10;99.90;;;;;;4197412;28;20059;-80
2023/10/29 04:08:28;;;;;;;3.33;0.85;;;12.10;99.90;;;;;;4197101;28;20161;-80
2023/10/29 04:10:30;;;;;;;1.50;0.60;;;12.10;99.90;;;;;;4197124;28;20055;-80
2023/10/29 04:12:32;;;;;;;1.92;0.90;;;12.20;99.90;;;;;;4197067;28;20421;-81
2023/10/29 04:14:32;;;;;;;2.35;0.80;;;12.30;99.90;;;;;;4197003;28;20083;-80
2023/10/29 04:16:33;;;;;;;2.72;0.90;;;12.30;99.90;;;;;;4196567;28;20404;-81
2023/10/29 04:18:34;;;;;;;4.97;1.33;;;12.30;99.90;;;;;;4197036;28;20574;-80
2023/10/29 04:20:35;;;;;;;3.55;1.20;;;12.30;99.90;;;;;;4196901;28;20521;-81
2023/10/29 04:22:36;;;;;;;4.53;0.85;;;12.40;99.90;;;;;;4198243;28;20505;-80
2023/10/29 04:24:37;;;;;;;3.53;0.70;;;12.40;99.90;;;;;;4196648;28;20045;-81
2023/10/29 04:26:37;;;;;;;1.90;1.70;;;12.50;99.90;;;;;;4196961;28;20045;-80
2023/10/29 04:28:38;;;;;;;4.35;0.70;;;12.50;99.90;;;;;;4197010;28;20051;-81
2023/10/29 04:30:39;;;;;;;2.00;0.60;;;12.50;99.90;;;;;;4198189;28;20096;-80
2023/10/29 04:32:39;;;;;;;1.45;0.70;;;12.60;99.90;;;;;;4196734;28;20048;-81
2023/10/29 04:34:40;;;;;;;3.38;1.10;;;12.60;99.90;;;;;;4197216;28;20397;-81
2023/10/29 04:36:48;;;;;;;2.20;0.80;;;12.70;99.90;;;;;;4179770;28;20083;-80
2023/10/29 04:38:49;;;;;;;5.97;1.70;;;12.70;99.90;;;;;;4196585;28;20841;-81
2023/10/29 04:40:51;;;;;;;0.50;0.50;;;12.70;99.90;;;;;;4196639;28;20110;-80
2023/10/29 04:42:51;;;;;;;3.85;0.60;;;12.80;99.90;;;;;;4196463;28;20116;-81
2023/10/29 04:44:52;;;;;;;1.17;0.73;;;12.80;99.90;;;;;;4196603;28;20535;-81
2023/10/29 04:46:53;;;;;;;1.95;0.50;;;12.80;99.90;;;;;;4196504;28;20048;-81
2023/10/29 04:48:53;;;;;;;1.52;0.50;;;12.80;99.90;;;;;;4179928;28;20127;-81
2023/10/29 04:50:54;;;;;;;4.05;0.50;;;12.80;99.90;;;;;;4179539;28;20048;-80
2023/10/29 04:52:54;;;;;;;1.83;0.40;;;12.80;99.90;;;;;;4179736;28;20119;-81
2023/10/29 04:54:55;;;;;;;1.55;0.52;;;12.70;99.90;;;;;;4197717;28;20070;-80
2023/10/29 04:56:56;;;;;;;1.08;0.32;;;12.60;99.90;;;;;;4196444;28;20114;-80
2023/10/29 04:58:56;;;;;;;0.85;0.30;;;12.60;99.90;;;;;;4197730;28;20476;-80
2023/10/29 05:00:57;;;;;;;2.28;0.35;;;12.50;99.90;;;;;;4195476;28;20464;-81
2023/10/29 05:02:58;;;;;;;1.25;0.30;;;12.50;99.90;;;;;;4179361;28;20509;-81
2023/10/29 05:04:58;;;;;;;0.85;0.28;;;12.40;99.90;;;;;;4179704;28;20041;-80
2023/10/29 05:06:59;;;;;;;0.22;0.20;;;12.40;99.90;;;;;;4196268;28;20055;-80
2023/10/29 05:09:00;;;;;;;1.13;0.25;;;12.30;99.90;;;;;;4179767;28;20049;-80
2023/10/29 05:11:00;;;;;;;1.75;0.30;;;12.30;99.90;;;;;;4179965;28;20049;-80
2023/10/29 05:13:02;;;;;;;0.52;0.30;;;12.20;99.90;;;;;;4196339;28;20041;-80
2023/10/29 05:15:03;;;;;;;2.90;0.47;;;12.20;99.90;;;;;;4196315;28;20079;-81
2023/10/29 05:17:04;;;;;;;1.83;0.30;;;12.20;99.90;;;;;;4197734;28;20045;-81
2023/10/29 05:19:04;;;;;;;0.95;0.30;;;12.20;99.90;;;;;;4196154;28;20139;-80
2023/10/29 05:21:05;;;;;;;0.45;0.22;;;12.10;99.90;;;;;;4197436;28;20063;-81
2023/10/29 05:23:07;;;;;;;1.02;0.35;;;12.10;99.90;;;;;;4196906;28;20500;-81
2023/10/29 05:25:08;;;;;;;0.75;0.40;;;12.10;99.90;;;;;;4197384;28;20080;-81
2023/10/29 05:27:09;;;;;;;0.45;0.30;;;12.00;99.90;;;;;;4179808;28;20049;-81
2023/10/29 05:29:09;;;;;;;1.42;0.13;;;12.00;99.90;;;;;;4197432;28;20501;-80
2023/10/29 05:31:10;;;;;;;1.25;0.20;;;11.90;99.90;;;;;;4197370;28;20132;-81
2023/10/29 05:33:11;;;;;;;2.08;0.35;;;11.90;99.90;;;;;;4196110;28;20033;-80
2023/10/29 05:35:12;;;;;;;2.63;0.85;;;11.90;99.90;;;;;;4179133;28;20128;-81
2023/10/29 05:37:12;;;;;;;0.30;0.30;;;11.90;99.90;;;;;;4196082;28;20045;-81
2023/10/29 05:39:14;;;;;;;1.85;0.32;;;11.80;99.90;;;;;;4196217;28;20052;-81
2023/10/29 05:41:15;;;;;;;1.50;0.38;;;11.80;99.90;;;;;;4196063;28;20525;-81
2023/10/29 05:43:16;;;;;;;1.83;0.40;;;11.80;99.90;;;;;;4195936;28;20049;-81
2023/10/29 05:45:16;;;;;;;0.77;0.40;;;11.80;99.90;;;;;;4197510;28;20044;-80
2023/10/29 05:47:17;;;;;;;1.48;0.30;;;11.80;99.90;;;;;;4196785;28;20044;-80
2023/10/29 05:49:18;;;;;;;0.80;0.38;;;11.80;99.90;;;;;;4195981;28;20516;-80
2023/10/29 05:51:19;;;;;;;2.47;0.55;;;11.70;99.90;;;;;;4197096;28;20040;-81
2023/10/29 05:53:20;;;;;;;3.03;0.40;;;11.80;99.90;;;;;;4179543;28;20059;-80
2023/10/29 05:55:22;;;;;;;2.05;0.45;;;11.70;99.90;;;;;;4197170;28;20127;-81
2023/10/29 05:57:22;;;;;;;1.23;0.40;;;11.90;99.90;;;;;;4197133;28;20405;-81
2023/10/29 05:59:23;;;;;;;0.63;0.47;;;11.80;99.90;;;;;;4195404;28;20138;-80
2023/10/29 06:01:24;;;;;;;3.20;0.30;;;11.80;99.90;;;;;;4206812;28;20055;-80
2023/10/29 06:03:24;;;;;;;2.10;0.35;;;11.80;99.90;;;;;;4213606;28;20381;-80
2023/10/29 06:05:25;;;;;;;1.77;0.38;;;11.90;99.90;;;;;;4196030;28;20048;-80
2023/10/29 06:07:26;;;;;;;1.65;0.40;;;11.90;99.90;;;;;;4195590;28;20044;-81
2023/10/29 06:09:26;;;;;;;1.05;0.50;;;11.90;99.90;;;;;;4213759;28;20504;-81
2023/10/29 06:11:27;;;;;;;4.28;0.55;;;11.90;99.90;;;;;;4213890;28;20126;-81
2023/10/29 06:13:28;;;;;;;1.40;0.43;;;11.90;99.90;;;;;;4216933;28;20043;-81
2023/10/29 06:15:29;;;;;;;2.75;0.43;;;12.00;99.90;;;;;;4198409;28;20175;-80
2023/10/29 06:17:30;;;;;;;2.13;0.40;;;12.00;99.90;;;;;;4216872;28;20152;-81
2023/10/29 06:19:33;;;;;;;2.88;0.68;;;12.00;99.90;;;;;;4217047;28;20044;-81
2023/10/29 06:21:34;;;;;;;1.48;0.40;;;12.10;99.90;;;;;;4198880;28;20048;-81
2023/10/29 06:23:35;;;;;;;0.50;0.30;;;12.10;99.90;;;;;;4216700;28;20044;-81
2023/10/29 06:25:36;;;;;;;5.90;0.90;;;12.20;99.90;;;;;;4217001;28;20055;-80
2023/10/29 06:27:37;;;;;;;2.05;0.45;;;12.20;99.90;;;;;;4217176;28;20048;-80
2023/10/29 06:29:38;;;;;;;5.53;0.75;;;12.20;99.90;;;;;;4216711;28;20040;-81
2023/10/29 06:31:39;;;;;;;2.55;0.50;;;12.20;99.90;;;;;;4216202;28;20044;-81
2023/10/29 06:33:41;;;;;;;2.85;0.45;;;12.20;99.90;;;;;;4198510;28;20127;-81
2023/10/29 06:35:41;;;;;;;3.03;1.13;;;12.20;99.90;;;;;;4198511;28;20052;-81
2023/10/29 06:37:42;;;;;;;5.78;0.82;;;12.20;99.90;;;;;;4215344;28;20053;-81
2023/10/29 06:39:43;;;;;;;3.55;0.50;;;12.20;99.90;;;;;;4198449;28;20059;-81
2023/10/29 06:41:44;;;;;;;6.78;0.70;;;12.20;99.90;;;;;;4198424;28;20055;-81
2023/10/29 06:43:44;;;;;;;1.80;0.30;;;12.20;99.90;;;;;;4216605;28;20071;-81
2023/10/29 06:45:45;;;;;;;1.20;0.60;;;12.10;99.90;;;;;;4198201;28;20046;-81
2023/10/29 06:47:47;;;;;;;2.08;0.63;;;12.10;99.90;;;;;;4198443;28;20094;-81
2023/10/29 06:49:47;;;;;;;2.30;0.60;;;12.00;99.90;;;;;;4181751;28;20091;-81
2023/10/29 06:51:48;;;;;;;1.65;0.50;;;12.00;99.90;;;;;;4198308;28;20437;-81
2023/10/29 06:53:49;;;;;;;6.75;0.80;;;12.00;99.90;;;;;;4197996;28;20059;-81
2023/10/29 06:55:49;;;;;;;0.73;0.32;;;12.00;99.90;;;;;;4198203;28;20049;-81
2023/10/29 06:57:50;;;;;;;2.40;0.40;;;12.10;99.90;;;;;;4216190;28;20445;-80
2023/10/29 06:59:51;;;;;;;2.65;1.00;;;12.20;99.90;;;;;;4181750;28;20040;-81
2023/10/29 07:01:52;;;;;;;3.15;0.63;;;12.20;99.90;;;;;;4197924;28;20052;-81
2023/10/29 07:03:52;;;;;;;2.78;0.50;;;12.30;99.90;;;;;;4181578;28;20170;-81
2023/10/29 07:05:53;;;;;;;5.15;0.80;;;12.30;99.90;;;;;;4216077;28;20054;-81
2023/10/29 07:07:54;;;;;;;2.25;0.40;;;12.40;99.90;;;;;;4216045;28;20055;-81
2023/10/29 07:09:55;;;;;;;1.90;0.70;;;12.50;99.90;;;;;;4181511;28;20378;-81
2023/10/29 07:11:56;;;;;;;1.63;0.22;;;12.50;99.90;;;;;;4198230;28;20048;-80
2023/10/29 07:13:57;;;;;;;0.95;0.47;;;12.60;99.90;;;;;;4197876;28;20497;-81
2023/10/29 07:16:00;;;;;;;5.07;0.43;;;12.60;99.90;;;;;;4216033;28;20492;-81
2023/10/29 07:18:01;;;;;;;1.42;0.50;;;12.50;99.90;;;;;;4215944;28;20044;-81
2023/10/29 07:20:03;;;;;;;2.00;0.57;;;12.50;99.90;;;;;;4216003;28;20101;-81
2023/10/29 07:22:04;;;;;;;3.42;0.40;;;12.50;99.90;;;;;;4197620;28;20044;-80
2023/10/29 07:24:06;;;;;;;2.65;0.38;;;12.50;99.90;;;;;;4215394;28;20078;-80
2023/10/29 07:26:07;;;;;;;3.47;0.43;;;12.50;99.90;;;;;;4215899;28;20390;-80
2023/10/29 07:28:07;;;;;;;4.45;0.50;;;12.50;99.90;;;;;;4197686;28;20055;-80
2023/10/29 07:30:09;;;;;;;3.28;0.57;;;12.50;99.90;;;;;;4197998;28;20040;-81
2023/10/29 07:32:09;;;;;;;2.35;0.45;;;12.50;99.90;;;;;;4215828;28;20054;-81
2023/10/29 07:34:10;;;;;;;1.17;0.30;;;12.60;99.90;;;;;;4197609;28;20123;-81
2023/10/29 07:36:11;;;;;;;2.55;0.50;;;12.60;99.90;;;;;;4180535;28;20067;-80
2023/10/29 07:38:12;;;;;;;1.75;0.30;;;12.60;99.90;;;;;;4197471;28;20044;-81
2023/10/29 07:40:12;;;;;;;3.08;0.98;;;12.60;99.90;;;;;;4215575;28;20428;-80
2023/10/29 07:42:13;;;;;;;3.17;0.60;;;12.60;99.90;;;;;;4197972;28;20048;-80
2023/10/29 07:44:14;;;;;;;1.15;0.40;;;12.60;99.90;;;;;;4215419;28;20046;-81
2023/10/29 07:46:14;;;;;;;0.47;0.28;;;12.60;99.90;;;;;;4215447;28;20048;-81
2023/10/29 07:48:17;;;;;;;1.85;0.20;;;12.60;99.90;;;;;;4215321;28;20048;-81
2023/10/29 07:50:18;;;;;;;5.30;0.50;;;12.60;99.90;;;;;;4215034;28;20423;-81
2023/10/29 07:52:18;;;;;;;2.50;1.17;;;12.70;99.90;;;;;;4197429;28;20037;-81
2023/10/29 07:54:19;;;;;;;3.70;0.45;;;12.70;99.90;;;;;;4215218;28;20128;-81
2023/10/29 07:56:20;;;;;;;6.70;0.50;;;12.70;99.90;;;;;;4215242;28;20055;-81
2023/10/29 07:58:21;;;;;;;2.15;0.40;;;12.70;99.90;;;;;;4180370;28;20056;-80
2023/10/29 08:00:22;;;;;;;3.85;0.50;;;12.80;99.90;;;;;;4215234;28;20050;-81
2023/10/29 08:02:24;;;;;;;3.92;0.47;;;12.80;99.90;;;;;;4215287;28;20071;-81
2023/10/29 08:04:28;;;;;;;3.10;0.50;;;12.80;99.90;;;;;;4215074;28;20044;-81
2023/10/29 08:06:28;;;;;;;2.05;0.40;;;12.80;99.90;;;;;;4196688;28;20428;-81
2023/10/29 08:08:29;;;;;;;0.32;0.30;;;12.80;99.90;;;;;;4197042;28;20053;-81
2023/10/29 08:10:30;;;;;;;3.90;0.50;;;12.90;99.90;;;;;;4196989;28;20488;-81
2023/10/29 08:12:31;;;;;;;3.83;0.57;;;12.90;99.90;;;;;;4196982;28;20045;-81
2023/10/29 08:14:31;;;;;;;2.35;0.50;;;13.00;99.90;;;;;;4196750;28;20048;-81
2023/10/29 08:16:32;;;;;;;1.08;0.40;;;13.00;99.90;;;;;;4196847;28;20135;-81
2023/10/29 08:18:33;;;;;;;3.00;0.40;;;13.10;99.90;;;;;;4196856;28;20060;-81
2023/10/29 08:20:34;;;;;;;2.17;0.50;;;13.10;99.90;;;;;;4214357;28;20512;-81
2023/10/29 08:22:34;;;;;;;3.85;0.40;;;13.30;99.90;;;;;;4196819;28;20048;-81
2023/10/29 08:24:36;;;;;;;3.42;0.73;;;;;;;;;;4197112;28;20483;-81
2023/10/29 08:26:36;;;;;;;2.97;0.65;;;13.80;99.90;;;;;;4214786;28;20048;-81
2023/10/29 08:28:37;;;;;;;2.50;0.40;;;14.90;99.90;;;;;;4196719;28;20526;-81
2023/10/29 08:30:38;;;;;;;4.90;0.47;;;15.40;99.90;;;;;;4196244;28;20044;-81
2023/10/29 08:32:38;;;;;;;5.88;0.50;;;15.50;99.90;;;;;;4215226;28;20102;-81
2023/10/29 08:34:39;;;;;;;0.90;0.60;;;15.90;99.90;;;;;;4214792;28;20131;-81
2023/10/29 08:36:40;;;;;;;2.28;0.25;;;16.30;99.90;;;;;;4196876;28;20134;-81
2023/10/29 08:38:40;;;;;;;3.00;0.65;;;16.60;99.90;;;;;;4196865;28;20055;-81
2023/10/29 08:40:41;;;;;;;3.10;1.00;;;16.70;99.90;;;;;;4214300;28;20058;-81
2023/10/29 08:42:42;;;;;;;3.75;0.73;;;16.70;99.90;;;;;;4196839;28;20048;-81
2023/10/29 08:44:42;;;;;;;3.63;0.40;;;17.20;99.90;;;;;;4196593;28;20049;-81
2023/10/29 08:46:43;;;;;;;5.20;0.63;;;17.50;99.90;;;;;;4214812;28;20052;-81
2023/10/29 08:48:44;;;;;;;2.90;0.30;;;17.50;99.90;;;;;;4214592;28;20047;-81
2023/10/29 08:50:44;;;;;;;5.07;0.68;;;17.30;99.90;;;;;;4214946;28;20059;-81
2023/10/29 08:52:45;;;;;;;7.32;0.90;;;17.50;99.90;;;;;;4214429;28;20490;-81
2023/10/29 08:54:47;;;;;;;4.25;0.52;;;17.60;99.90;;;;;;4179830;28;20157;-81
2023/10/29 08:56:47;;;;;;;1.13;0.40;;;17.60;99.90;;;;;;4196134;28;20052;-81
2023/10/29 08:58:48;;;;;;;3.50;1.05;;;18.00;99.90;;;;;;4196593;28;20062;-81
2023/10/29 09:00:49;;;;;;;6.22;0.40;;;18.40;99.90;;;;;;4212974;28;20059;-81
2023/10/29 09:02:50;;;;;;;4.60;0.50;;;18.30;99.90;;;;;;4197407;28;20057;-82
2023/10/29 09:04:56;;;;;;;3.65;0.70;;;17.50;99.90;;;;;;4197511;28;20412;-81
2023/10/29 09:06:59;;;;;;;3.78;0.50;;;17.40;99.90;;;;;;4197215;28;20049;-81
2023/10/29 09:09:00;;;;;;;3.53;0.60;;;17.80;99.90;;;;;;4196697;28;20044;-81
2023/10/29 09:11:01;;;;;;;6.03;1.10;;;17.60;99.90;;;;;;4196132;28;20055;-81
2023/10/29 09:13:01;;;;;;;4.65;0.77;;;17.00;99.90;;;;;;4196428;28;20076;-81
2023/10/29 09:15:02;;;;;;;2.70;0.50;;;16.40;99.90;;;;;;4197654;28;20040;-81
2023/10/29 09:17:03;;;;;;;2.47;0.70;;;15.90;99.90;;;;;;4197704;28;20076;-81
2023/10/29 09:19:04;;;;;;;6.45;1.25;;;15.40;99.90;;;;;;4179077;28;20045;-81
2023/10/29 09:21:05;;;;;;;3.65;0.68;;;15.00;99.90;;;;;;4196039;28;20524;-81
2023/10/29 09:23:05;;;;;;;4.07;0.57;;;14.80;99.90;;;;;;4195865;28;20123;-81
2023/10/29 09:25:06;;;;;;;4.13;0.68;;;14.50;99.90;;;;;;4196170;28;20053;-81
2023/10/29 09:27:07;;;;;;;3.20;0.47;;;14.40;99.90;;;;;;4196155;28;20048;-81
2023/10/29 09:29:08;;;;;;;1.17;0.45;;;14.20;99.90;;;;;;4195534;28;20052;-81
2023/10/29 09:31:16;;;;;;;2.53;0.50;;;14.20;99.90;;;;;;4197488;28;20052;-81
2023/10/29 09:33:17;;;;;;;3.47;1.52;;;14.30;99.90;;;;;;4196116;28;20060;-81
2023/10/29 09:35:18;;;;;;;3.53;0.70;;;14.70;99.90;;;;;;4197531;28;20432;-81
2023/10/29 09:37:18;;;;;;;4.13;0.70;;;15.00;99.90;;;;;;4196011;28;20083;-81
2023/10/29 09:39:19;;;;;;;2.25;0.38;;;15.00;99.90;;;;;;4196145;28;20141;-81
2023/10/29 09:41:20;;;;;;;3.53;0.95;;;15.20;99.90;;;;;;4196890;28;20056;-81
2023/10/29 09:43:26;;;;;;;5.13;0.52;;;15.20;99.90;;;;;;4196347;28;20052;-80
2023/10/29 09:45:27;;;;;;;2.83;1.08;;;15.00;99.90;;;;;;4197354;28;20050;-81
2023/10/29 09:47:27;;;;;;;1.63;0.50;;;14.90;99.90;;;;;;4198093;28;20127;-81
2023/10/29 09:49:28;;;;;;;4.80;0.90;;;14.70;99.90;;;;;;4200603;28;20048;-81
2023/10/29 09:51:29;;;;;;;2.88;0.50;;;14.70;99.90;;;;;;4200452;28;20069;-81
2023/10/29 09:53:32;;;;;;;1.15;0.60;;;14.80;99.90;;;;;;4200178;28;20037;-81
2023/10/29 09:55:34;;;;;;;2.47;0.50;;;14.70;99.90;;;;;;4199210;28;20087;-81
2023/10/29 09:57:34;;;;;;;8.88;1.45;;;14.70;99.90;;;;;;4199423;28;20049;-81
2023/10/29 09:59:35;;;;;;;2.25;0.60;;;15.00;99.90;;;;;;4200321;28;20040;-81
2023/10/29 10:01:36;;;;;;;5.05;0.35;;;15.00;99.90;;;;;;4198975;28;20112;-81
2023/10/29 10:03:37;;;;;;;6.07;0.50;;;15.20;99.90;;;;;;4199079;28;20549;-81
2023/10/29 10:05:41;;;;;;;5.43;0.70;;;15.40;99.90;;;;;;4200312;28;20488;-81
2023/10/29 10:07:41;;;;;;;2.38;0.52;;;15.60;99.90;;;;;;4199175;28;20127;-81
2023/10/29 10:09:58;;;;;;;5.75;0.98;;;15.80;99.90;;;;;;4182595;28;20056;-81
2023/10/29 10:12:05;;;;;;;1.58;0.43;;;15.90;99.90;;;;;;4200339;28;20064;-81
2023/10/29 10:14:06;;;;;;;0.95;0.60;;;15.70;99.90;;;;;;4199054;28;20048;-81
2023/10/29 10:16:11;;;;;;;6.55;1.25;;;15.50;99.90;;;;;;4198925;28;20052;-82
2023/10/29 10:18:12;;;;;;;4.47;0.50;;;14.70;99.90;;;;;;4198719;28;20048;-81
2023/10/29 10:20:13;;;;;;;1.80;0.60;;;15.20;99.90;;;;;;4198742;28;20386;-81
2023/10/29 10:22:34;;;;;;;3.15;0.60;;;15.20;99.90;;;;;;4200032;28;20056;-81
2023/10/29 10:24:43;;;;;;;6.18;0.90;;;15.40;99.90;;;;;;4200419;28;20052;-81
2023/10/29 10:26:44;;;;;;;7.00;0.68;;;15.40;99.90;;;;;;4200047;28;20053;-81
2023/10/29 10:28:55;;;;;;;4.47;0.60;;;15.40;99.90;;;;;;4200175;28;20044;-81
2023/10/29 10:30:56;;;;;;;3.83;0.57;;;15.40;99.90;;;;;;4198792;28;20120;-81